To NAV CANADA Home Page Login to a new session Search on AWWS site Feedback and Comments Disclaimer Vers la page française équivalente Tips FAQ What's new on the site To the Forecasts and Observations / NOTAM section To "File a Flight Plan" website Publications and other links Update of the User's profile FIC Telephone Numbers My Weather Data Folder Route Weather Data Regional Weather Data Local Weather Data To the Forecasts and Observations / NOTAM section
Request Generated 03/01/2015 at 08:24:44 UTC . Weather information available at that time is displayed.

METAR/TAF

MARYS HARBOUR/NL    (show WxCam)

METAR CYMH 010800Z AUTO 24010KT 9SM CLR M20/M25 A3021 RMK SLP232=
METAR CYMH 010700Z AUTO 24009KT 9SM CLR M20/M25 A3020 RMK SLP229=
METAR CYMH 010600Z AUTO 23010KT 9SM CLR M20/M25 A3020 RMK SLP228=

*** REMARK        : Forecast period has ended; this was the last TAF issued
*** REMARQUE : La période de prévision est échue; ceci était le dernier TAF qui a été émis
TAF CYMH 010138Z 0102/0104 27008KT P6SM SKC TEMPO 0102/0104 4SM IC
RMK FCST BASED ON AUTO OBS. NXT FCST WILL BE ISSUED AT 010945Z=
Your time UTC time
Weather data provided by Environment Canada and NAV CANADA